sensor_id;sensor_type;location;lat;lon;timestamp;P1;durP1;ratioP1;P2;durP2;ratioP2
31782;SDS011;18351;47.560;9.708;2023-05-10T00:00:21;0.90;;;0.90;;
31782;SDS011;18351;47.560;9.708;2023-05-10T00:02:48;0.70;;;0.60;;
31782;SDS011;18351;47.560;9.708;2023-05-10T00:05:14;1.65;;;0.90;;
31782;SDS011;18351;47.560;9.708;2023-05-10T00:07:39;1.55;;;1.30;;
31782;SDS011;18351;47.560;9.708;2023-05-10T00:10:05;1.23;;;1.15;;
31782;SDS011;18351;47.560;9.708;2023-05-10T00:12:31;3.25;;;0.95;;
31782;SDS011;18351;47.560;9.708;2023-05-10T00:14:57;1.38;;;1.10;;
31782;SDS011;18351;47.560;9.708;2023-05-10T00:17:22;1.67;;;1.30;;
31782;SDS011;18351;47.560;9.708;2023-05-10T00:19:48;1.58;;;1.40;;
31782;SDS011;18351;47.560;9.708;2023-05-10T00:22:13;3.30;;;1.45;;
31782;SDS011;18351;47.560;9.708;2023-05-10T00:24:39;2.28;;;1.50;;
31782;SDS011;18351;47.560;9.708;2023-05-10T00:27:04;7.13;;;1.23;;
31782;SDS011;18351;47.560;9.708;2023-05-10T00:29:30;1.90;;;1.27;;
31782;SDS011;18351;47.560;9.708;2023-05-10T00:31:56;0.90;;;0.82;;
31782;SDS011;18351;47.560;9.708;2023-05-10T00:34:22;5.13;;;1.92;;
31782;SDS011;18351;47.560;9.708;2023-05-10T00:36:47;1.55;;;0.90;;
31782;SDS011;18351;47.560;9.708;2023-05-10T00:39:13;1.92;;;0.60;;
31782;SDS011;18351;47.560;9.708;2023-05-10T00:41:38;4.53;;;0.73;;
31782;SDS011;18351;47.560;9.708;2023-05-10T00:44:04;5.93;;;0.88;;
31782;SDS011;18351;47.560;9.708;2023-05-10T00:46:30;2.58;;;0.80;;
31782;SDS011;18351;47.560;9.708;2023-05-10T00:48:56;2.08;;;0.80;;
31782;SDS011;18351;47.560;9.708;2023-05-10T00:51:22;3.53;;;0.70;;
31782;SDS011;18351;47.560;9.708;2023-05-10T00:53:48;0.85;;;0.60;;
31782;SDS011;18351;47.560;9.708;2023-05-10T00:56:14;0.50;;;0.50;;
31782;SDS011;18351;47.560;9.708;2023-05-10T00:58:40;11.68;;;0.77;;
31782;SDS011;18351;47.560;9.708;2023-05-10T01:01:06;5.55;;;0.60;;
31782;SDS011;18351;47.560;9.708;2023-05-10T01:03:34;0.73;;;0.38;;
31782;SDS011;18351;47.560;9.708;2023-05-10T01:06:00;0.88;;;0.60;;
31782;SDS011;18351;47.560;9.708;2023-05-10T01:08:26;2.25;;;0.40;;
31782;SDS011;18351;47.560;9.708;2023-05-10T01:10:52;0.50;;;0.50;;
31782;SDS011;18351;47.560;9.708;2023-05-10T01:13:30;1.85;;;0.57;;
31782;SDS011;18351;47.560;9.708;2023-05-10T01:16:04;3.17;;;0.40;;
31782;SDS011;18351;47.560;9.708;2023-05-10T01:18:32;1.92;;;0.60;;
31782;SDS011;18351;47.560;9.708;2023-05-10T01:21:23;0.55;;;0.50;;
31782;SDS011;18351;47.560;9.708;2023-05-10T01:26:26;1.50;;;0.50;;
31782;SDS011;18351;47.560;9.708;2023-05-10T01:32:07;2.72;;;0.70;;
31782;SDS011;18351;47.560;9.708;2023-05-10T01:43:52;2.55;;;0.73;;
31782;SDS011;18351;47.560;9.708;2023-05-10T01:46:26;3.03;;;0.70;;
31782;SDS011;18351;47.560;9.708;2023-05-10T01:48:58;2.08;;;0.73;;
31782;SDS011;18351;47.560;9.708;2023-05-10T01:51:26;0.60;;;0.57;;
31782;SDS011;18351;47.560;9.708;2023-05-10T01:53:58;0.73;;;0.63;;
31782;SDS011;18351;47.560;9.708;2023-05-10T01:56:26;1.00;;;0.68;;
31782;SDS011;18351;47.560;9.708;2023-05-10T01:58:55;2.15;;;0.70;;
31782;SDS011;18351;47.560;9.708;2023-05-10T02:01:21;1.33;;;0.93;;
31782;SDS011;18351;47.560;9.708;2023-05-10T02:03:47;2.33;;;0.70;;
31782;SDS011;18351;47.560;9.708;2023-05-10T02:06:15;1.85;;;0.80;;
31782;SDS011;18351;47.560;9.708;2023-05-10T02:08:43;0.85;;;0.70;;
31782;SDS011;18351;47.560;9.708;2023-05-10T02:11:12;1.15;;;0.70;;
31782;SDS011;18351;47.560;9.708;2023-05-10T02:13:39;2.60;;;1.08;;
31782;SDS011;18351;47.560;9.708;2023-05-10T02:16:05;1.45;;;0.80;;
31782;SDS011;18351;47.560;9.708;2023-05-10T02:18:32;5.10;;;0.95;;
31782;SDS011;18351;47.560;9.708;2023-05-10T02:20:59;1.65;;;0.90;;
31782;SDS011;18351;47.560;9.708;2023-05-10T02:23:27;1.17;;;0.80;;
31782;SDS011;18351;47.560;9.708;2023-05-10T02:25:54;1.23;;;0.93;;
31782;SDS011;18351;47.560;9.708;2023-05-10T02:28:21;3.67;;;0.90;;
31782;SDS011;18351;47.560;9.708;2023-05-10T02:30:48;1.55;;;0.88;;
31782;SDS011;18351;47.560;9.708;2023-05-10T02:33:15;1.45;;;1.15;;
31782;SDS011;18351;47.560;9.708;2023-05-10T02:35:41;3.60;;;0.70;;
31782;SDS011;18351;47.560;9.708;2023-05-10T02:38:07;4.68;;;0.88;;
31782;SDS011;18351;47.560;9.708;2023-05-10T02:40:34;1.70;;;0.90;;
31782;SDS011;18351;47.560;9.708;2023-05-10T02:43:01;1.77;;;0.82;;
31782;SDS011;18351;47.560;9.708;2023-05-10T02:45:29;1.10;;;0.75;;
31782;SDS011;18351;47.560;9.708;2023-05-10T02:47:56;0.98;;;0.70;;
31782;SDS011;18351;47.560;9.708;2023-05-10T02:50:23;1.40;;;0.82;;
31782;SDS011;18351;47.560;9.708;2023-05-10T02:52:54;1.52;;;0.95;;
31782;SDS011;18351;47.560;9.708;2023-05-10T02:55:31;4.03;;;0.88;;
31782;SDS011;18351;47.560;9.708;2023-05-10T02:58:01;0.95;;;0.82;;
31782;SDS011;18351;47.560;9.708;2023-05-10T03:00:28;2.65;;;0.80;;
31782;SDS011;18351;47.560;9.708;2023-05-10T03:02:54;5.72;;;0.95;;
31782;SDS011;18351;47.560;9.708;2023-05-10T03:05:20;0.70;;;0.70;;
31782;SDS011;18351;47.560;9.708;2023-05-10T03:07:45;1.67;;;0.90;;
31782;SDS011;18351;47.560;9.708;2023-05-10T03:10:11;1.08;;;0.80;;
31782;SDS011;18351;47.560;9.708;2023-05-10T03:15:47;2.22;;;1.08;;
31782;SDS011;18351;47.560;9.708;2023-05-10T03:18:18;0.63;;;0.63;;
31782;SDS011;18351;47.560;9.708;2023-05-10T03:20:48;0.77;;;0.70;;
31782;SDS011;18351;47.560;9.708;2023-05-10T03:25:43;1.05;;;0.90;;
31782;SDS011;18351;47.560;9.708;2023-05-10T03:28:11;2.00;;;1.00;;
31782;SDS011;18351;47.560;9.708;2023-05-10T03:30:38;4.78;;;0.80;;
31782;SDS011;18351;47.560;9.708;2023-05-10T03:33:04;3.42;;;1.00;;
31782;SDS011;18351;47.560;9.708;2023-05-10T03:35:34;1.38;;;0.90;;
31782;SDS011;18351;47.560;9.708;2023-05-10T03:37:59;1.17;;;1.05;;
31782;SDS011;18351;47.560;9.708;2023-05-10T03:40:26;0.80;;;0.80;;
31782;SDS011;18351;47.560;9.708;2023-05-10T03:42:54;0.93;;;0.80;;
31782;SDS011;18351;47.560;9.708;2023-05-10T03:45:20;1.10;;;0.88;;
31782;SDS011;18351;47.560;9.708;2023-05-10T03:47:45;5.35;;;1.55;;
31782;SDS011;18351;47.560;9.708;2023-05-10T03:50:11;2.63;;;0.95;;
31782;SDS011;18351;47.560;9.708;2023-05-10T03:52:36;2.28;;;1.02;;
31782;SDS011;18351;47.560;9.708;2023-05-10T03:55:04;1.50;;;1.05;;
31782;SDS011;18351;47.560;9.708;2023-05-10T03:57:30;1.13;;;0.85;;
31782;SDS011;18351;47.560;9.708;2023-05-10T03:59:56;3.35;;;1.13;;
31782;SDS011;18351;47.560;9.708;2023-05-10T04:02:21;1.00;;;0.95;;
31782;SDS011;18351;47.560;9.708;2023-05-10T04:04:47;1.42;;;0.95;;
31782;SDS011;18351;47.560;9.708;2023-05-10T04:07:13;1.45;;;1.13;;
31782;SDS011;18351;47.560;9.708;2023-05-10T04:09:39;4.65;;;1.35;;
31782;SDS011;18351;47.560;9.708;2023-05-10T04:12:04;1.20;;;1.10;;
31782;SDS011;18351;47.560;9.708;2023-05-10T04:14:30;1.50;;;1.20;;
31782;SDS011;18351;47.560;9.708;2023-05-10T04:16:56;1.38;;;1.20;;
31782;SDS011;18351;47.560;9.708;2023-05-10T04:19:21;1.20;;;1.13;;
31782;SDS011;18351;47.560;9.708;2023-05-10T04:21:47;1.20;;;1.10;;
31782;SDS011;18351;47.560;9.708;2023-05-10T04:24:13;3.40;;;1.13;;
31782;SDS011;18351;47.560;9.708;2023-05-10T04:26:38;0.98;;;0.88;;
31782;SDS011;18351;47.560;9.708;2023-05-10T04:29:04;1.35;;;1.20;;
31782;SDS011;18351;47.560;9.708;2023-05-10T04:31:29;0.90;;;0.90;;
31782;SDS011;18351;47.560;9.708;2023-05-10T04:33:55;4.03;;;1.20;;
31782;SDS011;18351;47.560;9.708;2023-05-10T04:36:21;1.17;;;1.10;;
31782;SDS011;18351;47.560;9.708;2023-05-10T04:38:46;1.40;;;1.30;;
31782;SDS011;18351;47.560;9.708;2023-05-10T04:41:12;2.10;;;1.50;;
31782;SDS011;18351;47.560;9.708;2023-05-10T04:43:37;1.48;;;1.27;;
31782;SDS011;18351;47.560;9.708;2023-05-10T04:46:03;4.03;;;1.60;;
31782;SDS011;18351;47.560;9.708;2023-05-10T04:48:29;2.65;;;1.88;;
31782;SDS011;18351;47.560;9.708;2023-05-10T04:50:55;3.42;;;1.35;;
31782;SDS011;18351;47.560;9.708;2023-05-10T04:53:21;2.08;;;1.30;;
31782;SDS011;18351;47.560;9.708;2023-05-10T04:55:47;5.03;;;1.55;;
31782;SDS011;18351;47.560;9.708;2023-05-10T04:58:13;2.05;;;1.27;;
31782;SDS011;18351;47.560;9.708;2023-05-10T05:00:38;2.60;;;1.52;;
31782;SDS011;18351;47.560;9.708;2023-05-10T05:03:04;1.40;;;1.30;;
31782;SDS011;18351;47.560;9.708;2023-05-10T05:05:30;2.17;;;1.50;;
31782;SDS011;18351;47.560;9.708;2023-05-10T05:07:55;0.95;;;0.90;;
31782;SDS011;18351;47.560;9.708;2023-05-10T05:10:21;2.47;;;1.10;;
31782;SDS011;18351;47.560;9.708;2023-05-10T05:12:46;1.20;;;1.10;;
31782;SDS011;18351;47.560;9.708;2023-05-10T05:15:12;0.90;;;0.90;;
31782;SDS011;18351;47.560;9.708;2023-05-10T05:17:38;3.53;;;1.30;;
31782;SDS011;18351;47.560;9.708;2023-05-10T05:20:03;1.20;;;1.10;;
31782;SDS011;18351;47.560;9.708;2023-05-10T05:22:29;4.20;;;1.50;;
31782;SDS011;18351;47.560;9.708;2023-05-10T05:24:55;5.25;;;0.98;;
31782;SDS011;18351;47.560;9.708;2023-05-10T05:27:23;1.70;;;1.15;;
31782;SDS011;18351;47.560;9.708;2023-05-10T05:29:52;3.03;;;1.25;;
31782;SDS011;18351;47.560;9.708;2023-05-10T05:32:21;2.25;;;1.27;;
31782;SDS011;18351;47.560;9.708;2023-05-10T05:34:46;1.02;;;0.82;;
31782;SDS011;18351;47.560;9.708;2023-05-10T05:37:16;2.45;;;1.10;;
31782;SDS011;18351;47.560;9.708;2023-05-10T05:39:42;1.25;;;0.82;;
31782;SDS011;18351;47.560;9.708;2023-05-10T05:42:09;1.45;;;1.02;;
31782;SDS011;18351;47.560;9.708;2023-05-10T05:44:35;1.45;;;1.17;;
31782;SDS011;18351;47.560;9.708;2023-05-10T05:47:01;1.40;;;0.80;;
31782;SDS011;18351;47.560;9.708;2023-05-10T05:49:26;1.27;;;1.10;;
31782;SDS011;18351;47.560;9.708;2023-05-10T05:51:52;1.10;;;1.00;;
31782;SDS011;18351;47.560;9.708;2023-05-10T05:54:18;3.60;;;1.35;;
31782;SDS011;18351;47.560;9.708;2023-05-10T05:56:43;2.13;;;1.08;;
31782;SDS011;18351;47.560;9.708;2023-05-10T05:59:09;0.80;;;0.80;;
31782;SDS011;18351;47.560;9.708;2023-05-10T06:01:35;1.20;;;1.08;;
31782;SDS011;18351;47.560;9.708;2023-05-10T06:04:01;0.95;;;0.95;;
31782;SDS011;18351;47.560;9.708;2023-05-10T06:06:26;1.20;;;1.10;;
31782;SDS011;18351;47.560;9.708;2023-05-10T06:08:52;1.95;;;1.08;;
31782;SDS011;18351;47.560;9.708;2023-05-10T06:11:18;3.95;;;1.23;;
31782;SDS011;18351;47.560;9.708;2023-05-10T06:13:43;1.23;;;1.00;;
31782;SDS011;18351;47.560;9.708;2023-05-10T06:16:09;4.53;;;1.48;;
31782;SDS011;18351;47.560;9.708;2023-05-10T06:18:35;3.50;;;1.30;;
31782;SDS011;18351;47.560;9.708;2023-05-10T06:21:00;1.20;;;1.10;;
31782;SDS011;18351;47.560;9.708;2023-05-10T06:23:26;5.50;;;1.27;;
31782;SDS011;18351;47.560;9.708;2023-05-10T06:25:52;1.88;;;1.17;;
31782;SDS011;18351;47.560;9.708;2023-05-10T06:28:17;1.80;;;1.17;;
31782;SDS011;18351;47.560;9.708;2023-05-10T06:30:43;1.85;;;0.90;;
31782;SDS011;18351;47.560;9.708;2023-05-10T06:33:09;3.35;;;1.02;;
31782;SDS011;18351;47.560;9.708;2023-05-10T06:35:34;1.55;;;1.08;;
31782;SDS011;18351;47.560;9.708;2023-05-10T06:38:01;3.53;;;0.90;;
31782;SDS011;18351;47.560;9.708;2023-05-10T06:40:27;1.35;;;1.00;;
31782;SDS011;18351;47.560;9.708;2023-05-10T06:42:53;1.10;;;1.05;;
31782;SDS011;18351;47.560;9.708;2023-05-10T06:45:18;1.25;;;1.15;;
31782;SDS011;18351;47.560;9.708;2023-05-10T06:47:44;2.53;;;1.33;;
31782;SDS011;18351;47.560;9.708;2023-05-10T06:50:10;1.38;;;1.08;;
31782;SDS011;18351;47.560;9.708;2023-05-10T06:52:36;2.22;;;1.40;;
31782;SDS011;18351;47.560;9.708;2023-05-10T06:55:03;1.95;;;1.45;;
31782;SDS011;18351;47.560;9.708;2023-05-10T06:57:29;1.15;;;1.05;;
31782;SDS011;18351;47.560;9.708;2023-05-10T06:59:55;2.17;;;1.25;;
31782;SDS011;18351;47.560;9.708;2023-05-10T07:02:21;3.88;;;1.63;;
31782;SDS011;18351;47.560;9.708;2023-05-10T07:04:47;5.03;;;1.35;;
31782;SDS011;18351;47.560;9.708;2023-05-10T07:07:13;1.42;;;1.30;;
31782;SDS011;18351;47.560;9.708;2023-05-10T07:09:39;1.55;;;1.45;;
31782;SDS011;18351;47.560;9.708;2023-05-10T07:12:05;1.63;;;1.30;;
31782;SDS011;18351;47.560;9.708;2023-05-10T07:14:31;1.50;;;1.00;;
31782;SDS011;18351;47.560;9.708;2023-05-10T07:16:56;2.22;;;1.17;;
31782;SDS011;18351;47.560;9.708;2023-05-10T07:19:22;1.92;;;1.20;;
31782;SDS011;18351;47.560;9.708;2023-05-10T07:21:47;1.52;;;1.25;;
31782;SDS011;18351;47.560;9.708;2023-05-10T07:24:13;1.33;;;1.17;;
31782;SDS011;18351;47.560;9.708;2023-05-10T07:26:38;2.75;;;1.45;;
31782;SDS011;18351;47.560;9.708;2023-05-10T07:29:04;2.35;;;1.63;;
31782;SDS011;18351;47.560;9.708;2023-05-10T07:31:30;2.35;;;1.27;;
31782;SDS011;18351;47.560;9.708;2023-05-10T07:33:55;2.00;;;1.40;;
31782;SDS011;18351;47.560;9.708;2023-05-10T07:36:21;1.77;;;1.30;;
31782;SDS011;18351;47.560;9.708;2023-05-10T07:38:47;1.80;;;1.50;;
31782;SDS011;18351;47.560;9.708;2023-05-10T07:41:12;1.83;;;1.58;;
31782;SDS011;18351;47.560;9.708;2023-05-10T07:43:38;5.07;;;1.60;;
31782;SDS011;18351;47.560;9.708;2023-05-10T07:46:04;1.45;;;1.17;;
31782;SDS011;18351;47.560;9.708;2023-05-10T07:48:30;1.85;;;1.33;;
31782;SDS011;18351;47.560;9.708;2023-05-10T07:50:56;1.23;;;1.13;;
31782;SDS011;18351;47.560;9.708;2023-05-10T07:53:21;1.48;;;1.20;;
31782;SDS011;18351;47.560;9.708;2023-05-10T07:55:51;3.03;;;1.40;;
31782;SDS011;18351;47.560;9.708;2023-05-10T07:58:18;1.20;;;1.10;;
31782;SDS011;18351;47.560;9.708;2023-05-10T08:00:44;3.65;;;1.40;;
31782;SDS011;18351;47.560;9.708;2023-05-10T08:03:10;2.42;;;1.20;;
31782;SDS011;18351;47.560;9.708;2023-05-10T08:05:35;3.05;;;0.90;;
31782;SDS011;18351;47.560;9.708;2023-05-10T08:08:01;3.00;;;1.25;;
31782;SDS011;18351;47.560;9.708;2023-05-10T08:10:26;1.92;;;0.80;;
31782;SDS011;18351;47.560;9.708;2023-05-10T08:12:52;3.97;;;0.90;;
31782;SDS011;18351;47.560;9.708;2023-05-10T08:15:17;1.38;;;1.05;;
31782;SDS011;18351;47.560;9.708;2023-05-10T08:17:43;2.38;;;0.95;;
31782;SDS011;18351;47.560;9.708;2023-05-10T08:20:09;1.10;;;0.80;;
31782;SDS011;18351;47.560;9.708;2023-05-10T08:22:34;2.88;;;0.90;;
31782;SDS011;18351;47.560;9.708;2023-05-10T08:25:00;1.65;;;0.95;;
31782;SDS011;18351;47.560;9.708;2023-05-10T08:27:26;5.90;;;0.90;;
31782;SDS011;18351;47.560;9.708;2023-05-10T08:29:51;7.85;;;0.90;;
31782;SDS011;18351;47.560;9.708;2023-05-10T08:32:17;1.05;;;0.80;;
31782;SDS011;18351;47.560;9.708;2023-05-10T08:34:42;3.10;;;0.88;;
31782;SDS011;18351;47.560;9.708;2023-05-10T08:37:08;2.55;;;0.65;;
31782;SDS011;18351;47.560;9.708;2023-05-10T08:39:35;0.52;;;0.52;;
31782;SDS011;18351;47.560;9.708;2023-05-10T08:42:01;1.98;;;0.90;;
31782;SDS011;18351;47.560;9.708;2023-05-10T08:44:30;1.65;;;0.60;;
31782;SDS011;18351;47.560;9.708;2023-05-10T08:46:57;1.98;;;0.60;;
31782;SDS011;18351;47.560;9.708;2023-05-10T08:49:27;1.35;;;0.88;;
31782;SDS011;18351;47.560;9.708;2023-05-10T08:51:56;1.05;;;0.70;;
31782;SDS011;18351;47.560;9.708;2023-05-10T08:54:24;0.68;;;0.68;;
31782;SDS011;18351;47.560;9.708;2023-05-10T08:56:50;1.90;;;0.60;;
31782;SDS011;18351;47.560;9.708;2023-05-10T08:59:16;0.50;;;0.50;;
31782;SDS011;18351;47.560;9.708;2023-05-10T09:01:42;0.98;;;0.55;;
31782;SDS011;18351;47.560;9.708;2023-05-10T09:04:09;0.80;;;0.57;;
31782;SDS011;18351;47.560;9.708;2023-05-10T09:06:35;2.42;;;0.70;;
31782;SDS011;18351;47.560;9.708;2023-05-10T09:09:02;2.42;;;0.60;;
31782;SDS011;18351;47.560;9.708;2023-05-10T09:11:28;0.98;;;0.60;;
31782;SDS011;18351;47.560;9.708;2023-05-10T09:13:55;3.40;;;0.80;;
31782;SDS011;18351;47.560;9.708;2023-05-10T09:16:21;0.60;;;0.60;;
31782;SDS011;18351;47.560;9.708;2023-05-10T09:18:47;3.03;;;0.60;;
31782;SDS011;18351;47.560;9.708;2023-05-10T09:21:14;2.88;;;0.80;;
31782;SDS011;18351;47.560;9.708;2023-05-10T09:23:42;0.50;;;0.50;;
31782;SDS011;18351;47.560;9.708;2023-05-10T09:26:08;1.83;;;0.60;;
31782;SDS011;18351;47.560;9.708;2023-05-10T09:28:34;2.63;;;0.65;;
31782;SDS011;18351;47.560;9.708;2023-05-10T09:31:24;1.05;;;0.60;;
31782;SDS011;18351;47.560;9.708;2023-05-10T09:34:07;1.83;;;1.10;;
31782;SDS011;18351;47.560;9.708;2023-05-10T09:36:33;6.00;;;1.40;;
31782;SDS011;18351;47.560;9.708;2023-05-10T09:38:58;2.83;;;1.52;;
31782;SDS011;18351;47.560;9.708;2023-05-10T09:41:24;1.13;;;0.80;;
31782;SDS011;18351;47.560;9.708;2023-05-10T09:43:52;2.38;;;1.55;;
31782;SDS011;18351;47.560;9.708;2023-05-10T09:46:21;3.42;;;0.82;;
31782;SDS011;18351;47.560;9.708;2023-05-10T09:48:47;1.00;;;0.80;;
31782;SDS011;18351;47.560;9.708;2023-05-10T09:51:25;0.80;;;0.80;;
31782;SDS011;18351;47.560;9.708;2023-05-10T09:54:08;1.83;;;0.75;;
31782;SDS011;18351;47.560;9.708;2023-05-10T09:56:34;2.88;;;0.90;;
31782;SDS011;18351;47.560;9.708;2023-05-10T09:59:10;2.47;;;0.70;;
31782;SDS011;18351;47.560;9.708;2023-05-10T10:01:37;1.95;;;1.17;;
31782;SDS011;18351;47.560;9.708;2023-05-10T10:04:04;1.48;;;1.08;;
31782;SDS011;18351;47.560;9.708;2023-05-10T10:06:37;1.20;;;1.10;;
31782;SDS011;18351;47.560;9.708;2023-05-10T10:09:04;0.90;;;0.82;;
31782;SDS011;18351;47.560;9.708;2023-05-10T10:11:31;2.22;;;1.10;;
31782;SDS011;18351;47.560;9.708;2023-05-10T10:13:57;2.20;;;1.25;;
31782;SDS011;18351;47.560;9.708;2023-05-10T10:16:23;1.05;;;0.85;;
31782;SDS011;18351;47.560;9.708;2023-05-10T10:18:50;2.13;;;1.10;;
31782;SDS011;18351;47.560;9.708;2023-05-10T10:21:15;4.38;;;1.10;;
31782;SDS011;18351;47.560;9.708;2023-05-10T10:23:41;1.40;;;0.80;;
31782;SDS011;18351;47.560;9.708;2023-05-10T10:26:08;1.42;;;0.93;;
31782;SDS011;18351;47.560;9.708;2023-05-10T10:31:46;1.83;;;0.88;;
31782;SDS011;18351;47.560;9.708;2023-05-10T10:34:27;1.30;;;0.90;;
31782;SDS011;18351;47.560;9.708;2023-05-10T10:36:54;3.22;;;1.15;;
31782;SDS011;18351;47.560;9.708;2023-05-10T10:39:21;3.33;;;0.90;;
31782;SDS011;18351;47.560;9.708;2023-05-10T10:41:50;2.17;;;1.05;;
31782;SDS011;18351;47.560;9.708;2023-05-10T10:50:21;2.47;;;0.93;;
31782;SDS011;18351;47.560;9.708;2023-05-10T10:52:26;1.88;;;1.05;;
31782;SDS011;18351;47.560;9.708;2023-05-10T10:55:01;1.67;;;0.90;;
31782;SDS011;18351;47.560;9.708;2023-05-10T11:02:52;0.80;;;0.70;;
31782;SDS011;18351;47.560;9.708;2023-05-10T11:05:39;1.02;;;0.68;;
31782;SDS011;18351;47.560;9.708;2023-05-10T11:08:17;1.25;;;0.95;;
31782;SDS011;18351;47.560;9.708;2023-05-10T11:10:54;2.08;;;0.80;;
31782;SDS011;18351;47.560;9.708;2023-05-10T11:16:27;1.38;;;0.80;;
31782;SDS011;18351;47.560;9.708;2023-05-10T11:21:29;4.32;;;0.98;;
31782;SDS011;18351;47.560;9.708;2023-05-10T11:23:56;2.42;;;1.13;;
31782;SDS011;18351;47.560;9.708;2023-05-10T11:26:33;1.90;;;1.08;;
31782;SDS011;18351;47.560;9.708;2023-05-10T11:29:00;1.95;;;0.70;;
31782;SDS011;18351;47.560;9.708;2023-05-10T11:31:27;2.03;;;0.90;;
31782;SDS011;18351;47.560;9.708;2023-05-10T11:33:56;1.20;;;0.90;;
31782;SDS011;18351;47.560;9.708;2023-05-10T11:36:26;2.60;;;0.90;;
31782;SDS011;18351;47.560;9.708;2023-05-10T11:38:54;0.82;;;0.80;;
31782;SDS011;18351;47.560;9.708;2023-05-10T11:41:21;8.43;;;0.95;;
31782;SDS011;18351;47.560;9.708;2023-05-10T11:43:49;3.28;;;0.90;;
31782;SDS011;18351;47.560;9.708;2023-05-10T11:46:16;1.58;;;1.00;;
31782;SDS011;18351;47.560;9.708;2023-05-10T11:48:45;2.40;;;0.77;;
31782;SDS011;18351;47.560;9.708;2023-05-10T11:51:11;1.75;;;0.85;;
31782;SDS011;18351;47.560;9.708;2023-05-10T11:53:37;1.00;;;0.90;;
31782;SDS011;18351;47.560;9.708;2023-05-10T11:56:03;1.80;;;0.90;;
31782;SDS011;18351;47.560;9.708;2023-05-10T11:58:33;1.15;;;0.80;;
31782;SDS011;18351;47.560;9.708;2023-05-10T12:01:01;4.22;;;1.05;;
31782;SDS011;18351;47.560;9.708;2023-05-10T12:03:27;1.95;;;1.00;;
31782;SDS011;18351;47.560;9.708;2023-05-10T12:05:53;1.95;;;0.80;;
31782;SDS011;18351;47.560;9.708;2023-05-10T12:08:21;1.38;;;0.75;;
31782;SDS011;18351;47.560;9.708;2023-05-10T12:10:51;2.92;;;1.08;;
31782;SDS011;18351;47.560;9.708;2023-05-10T12:13:17;3.35;;;1.10;;
31782;SDS011;18351;47.560;9.708;2023-05-10T12:15:45;2.45;;;1.38;;
31782;SDS011;18351;47.560;9.708;2023-05-10T12:18:14;2.83;;;1.70;;
31782;SDS011;18351;47.560;9.708;2023-05-10T12:20:40;2.60;;;1.30;;
31782;SDS011;18351;47.560;9.708;2023-05-10T12:23:07;3.67;;;1.27;;
31782;SDS011;18351;47.560;9.708;2023-05-10T12:25:34;4.82;;;1.05;;
31782;SDS011;18351;47.560;9.708;2023-05-10T12:28:04;4.05;;;1.25;;
31782;SDS011;18351;47.560;9.708;2023-05-10T12:30:32;6.60;;;1.23;;
31782;SDS011;18351;47.560;9.708;2023-05-10T12:32:59;2.42;;;1.20;;
31782;SDS011;18351;47.560;9.708;2023-05-10T12:35:45;4.35;;;1.30;;
31782;SDS011;18351;47.560;9.708;2023-05-10T12:41:04;2.75;;;1.20;;
31782;SDS011;18351;47.560;9.708;2023-05-10T12:43:31;3.65;;;1.00;;
31782;SDS011;18351;47.560;9.708;2023-05-10T12:45:57;1.98;;;1.30;;
31782;SDS011;18351;47.560;9.708;2023-05-10T12:48:23;5.63;;;1.67;;
31782;SDS011;18351;47.560;9.708;2023-05-10T12:50:49;4.68;;;1.50;;
31782;SDS011;18351;47.560;9.708;2023-05-10T12:53:16;2.97;;;1.52;;
31782;SDS011;18351;47.560;9.708;2023-05-10T12:55:44;3.78;;;1.92;;
31782;SDS011;18351;47.560;9.708;2023-05-10T12:58:10;8.15;;;2.40;;
31782;SDS011;18351;47.560;9.708;2023-05-10T13:00:36;3.88;;;1.77;;
31782;SDS011;18351;47.560;9.708;2023-05-10T13:03:03;2.50;;;1.13;;
31782;SDS011;18351;47.560;9.708;2023-05-10T13:05:31;4.60;;;1.50;;
31782;SDS011;18351;47.560;9.708;2023-05-10T13:07:57;5.18;;;1.25;;
31782;SDS011;18351;47.560;9.708;2023-05-10T13:10:22;5.30;;;1.27;;
31782;SDS011;18351;47.560;9.708;2023-05-10T13:12:48;4.57;;;1.48;;
31782;SDS011;18351;47.560;9.708;2023-05-10T13:15:14;5.55;;;1.38;;
31782;SDS011;18351;47.560;9.708;2023-05-10T13:17:40;2.92;;;1.23;;
31782;SDS011;18351;47.560;9.708;2023-05-10T13:20:07;1.25;;;1.10;;
31782;SDS011;18351;47.560;9.708;2023-05-10T13:22:34;3.50;;;1.20;;
31782;SDS011;18351;47.560;9.708;2023-05-10T13:25:00;2.83;;;1.55;;
31782;SDS011;18351;47.560;9.708;2023-05-10T13:27:26;2.10;;;1.02;;
31782;SDS011;18351;47.560;9.708;2023-05-10T13:29:51;1.67;;;1.00;;
31782;SDS011;18351;47.560;9.708;2023-05-10T13:32:17;2.88;;;1.20;;
31782;SDS011;18351;47.560;9.708;2023-05-10T13:34:42;2.75;;;1.00;;
31782;SDS011;18351;47.560;9.708;2023-05-10T13:37:08;2.85;;;1.08;;
31782;SDS011;18351;47.560;9.708;2023-05-10T13:39:34;2.47;;;0.90;;
31782;SDS011;18351;47.560;9.708;2023-05-10T13:41:59;3.53;;;1.10;;
31782;SDS011;18351;47.560;9.708;2023-05-10T13:44:25;8.35;;;1.00;;
31782;SDS011;18351;47.560;9.708;2023-05-10T13:46:51;1.45;;;1.08;;
31782;SDS011;18351;47.560;9.708;2023-05-10T13:49:16;2.88;;;1.40;;
31782;SDS011;18351;47.560;9.708;2023-05-10T13:51:42;2.40;;;1.23;;
31782;SDS011;18351;47.560;9.708;2023-05-10T13:54:08;3.00;;;0.93;;
31782;SDS011;18351;47.560;9.708;2023-05-10T13:56:34;4.25;;;1.05;;
31782;SDS011;18351;47.560;9.708;2023-05-10T13:58:59;1.23;;;0.70;;
31782;SDS011;18351;47.560;9.708;2023-05-10T14:01:25;2.47;;;0.80;;
31782;SDS011;18351;47.560;9.708;2023-05-10T14:03:51;1.85;;;0.88;;
31782;SDS011;18351;47.560;9.708;2023-05-10T14:06:16;1.38;;;1.00;;
31782;SDS011;18351;47.560;9.708;2023-05-10T14:08:42;1.33;;;0.82;;
31782;SDS011;18351;47.560;9.708;2023-05-10T14:11:08;1.95;;;1.05;;
31782;SDS011;18351;47.560;9.708;2023-05-10T14:13:34;2.50;;;0.80;;
31782;SDS011;18351;47.560;9.708;2023-05-10T14:15:59;4.65;;;1.10;;
31782;SDS011;18351;47.560;9.708;2023-05-10T14:18:26;2.70;;;1.33;;
31782;SDS011;18351;47.560;9.708;2023-05-10T14:20:51;2.38;;;0.85;;
31782;SDS011;18351;47.560;9.708;2023-05-10T14:23:17;0.85;;;0.80;;
31782;SDS011;18351;47.560;9.708;2023-05-10T14:25:45;2.05;;;1.23;;
31782;SDS011;18351;47.560;9.708;2023-05-10T14:28:10;1.38;;;0.80;;
31782;SDS011;18351;47.560;9.708;2023-05-10T14:30:37;0.85;;;0.80;;
31782;SDS011;18351;47.560;9.708;2023-05-10T14:33:02;1.65;;;0.98;;
31782;SDS011;18351;47.560;9.708;2023-05-10T14:35:28;1.48;;;0.75;;
31782;SDS011;18351;47.560;9.708;2023-05-10T14:37:55;0.80;;;0.80;;
31782;SDS011;18351;47.560;9.708;2023-05-10T14:40:21;1.17;;;0.82;;
31782;SDS011;18351;47.560;9.708;2023-05-10T14:42:47;2.70;;;1.08;;
31782;SDS011;18351;47.560;9.708;2023-05-10T14:45:13;3.58;;;1.17;;
31782;SDS011;18351;47.560;9.708;2023-05-10T14:47:38;2.20;;;1.10;;
31782;SDS011;18351;47.560;9.708;2023-05-10T14:50:04;2.35;;;1.58;;
31782;SDS011;18351;47.560;9.708;2023-05-10T14:52:30;5.43;;;1.00;;
31782;SDS011;18351;47.560;9.708;2023-05-10T14:54:56;1.40;;;0.80;;
31782;SDS011;18351;47.560;9.708;2023-05-10T14:57:23;2.67;;;1.02;;
31782;SDS011;18351;47.560;9.708;2023-05-10T14:59:49;2.00;;;0.98;;
31782;SDS011;18351;47.560;9.708;2023-05-10T15:02:15;1.60;;;0.73;;
31782;SDS011;18351;47.560;9.708;2023-05-10T15:04:41;0.95;;;0.85;;
31782;SDS011;18351;47.560;9.708;2023-05-10T15:07:06;2.83;;;0.80;;
31782;SDS011;18351;47.560;9.708;2023-05-10T15:09:32;2.05;;;1.10;;
31782;SDS011;18351;47.560;9.708;2023-05-10T15:11:57;1.55;;;0.77;;
31782;SDS011;18351;47.560;9.708;2023-05-10T15:14:23;1.48;;;0.77;;
31782;SDS011;18351;47.560;9.708;2023-05-10T15:16:48;2.00;;;1.20;;
31782;SDS011;18351;47.560;9.708;2023-05-10T15:19:14;4.32;;;0.90;;
31782;SDS011;18351;47.560;9.708;2023-05-10T15:21:40;2.42;;;0.90;;
31782;SDS011;18351;47.560;9.708;2023-05-10T15:24:08;1.52;;;0.93;;
31782;SDS011;18351;47.560;9.708;2023-05-10T15:26:34;1.50;;;0.95;;
31782;SDS011;18351;47.560;9.708;2023-05-10T15:29:00;2.97;;;0.93;;